sensor_id;sensor_type;location;lat;lon;timestamp;P1;durP1;ratioP1;P2;durP2;ratioP2
19183;SDS011;9724;51.194;6.856;2024-01-16T00:00:03;15.33;;;8.50;;
19183;SDS011;9724;51.194;6.856;2024-01-16T00:02:30;16.87;;;8.93;;
19183;SDS011;9724;51.194;6.856;2024-01-16T00:04:57;21.33;;;9.37;;
19183;SDS011;9724;51.194;6.856;2024-01-16T00:07:23;16.43;;;9.03;;
19183;SDS011;9724;51.194;6.856;2024-01-16T00:09:49;14.97;;;8.13;;
19183;SDS011;9724;51.194;6.856;2024-01-16T00:12:18;11.17;;;8.13;;
19183;SDS011;9724;51.194;6.856;2024-01-16T00:14:44;15.60;;;7.83;;
19183;SDS011;9724;51.194;6.856;2024-01-16T00:17:11;12.40;;;7.27;;
19183;SDS011;9724;51.194;6.856;2024-01-16T00:19:37;10.80;;;7.83;;
19183;SDS011;9724;51.194;6.856;2024-01-16T00:22:04;13.10;;;7.37;;
19183;SDS011;9724;51.194;6.856;2024-01-16T00:24:30;13.37;;;7.20;;
19183;SDS011;9724;51.194;6.856;2024-01-16T00:26:56;14.53;;;7.37;;
19183;SDS011;9724;51.194;6.856;2024-01-16T00:29:22;16.80;;;7.37;;
19183;SDS011;9724;51.194;6.856;2024-01-16T00:31:49;16.77;;;7.47;;
19183;SDS011;9724;51.194;6.856;2024-01-16T00:34:16;19.93;;;7.93;;
19183;SDS011;9724;51.194;6.856;2024-01-16T00:36:42;14.00;;;7.63;;
19183;SDS011;9724;51.194;6.856;2024-01-16T00:39:09;16.20;;;7.33;;
19183;SDS011;9724;51.194;6.856;2024-01-16T00:41:35;14.80;;;7.47;;
19183;SDS011;9724;51.194;6.856;2024-01-16T00:44:01;12.00;;;6.87;;
19183;SDS011;9724;51.194;6.856;2024-01-16T00:46:28;13.93;;;7.73;;
19183;SDS011;9724;51.194;6.856;2024-01-16T00:48:54;13.20;;;7.53;;
19183;SDS011;9724;51.194;6.856;2024-01-16T00:51:21;14.87;;;7.80;;
19183;SDS011;9724;51.194;6.856;2024-01-16T00:53:47;17.93;;;7.90;;
19183;SDS011;9724;51.194;6.856;2024-01-16T00:56:14;14.63;;;7.77;;
19183;SDS011;9724;51.194;6.856;2024-01-16T00:58:40;18.43;;;8.30;;
19183;SDS011;9724;51.194;6.856;2024-01-16T01:01:06;14.27;;;8.77;;
19183;SDS011;9724;51.194;6.856;2024-01-16T01:03:33;18.40;;;8.33;;
19183;SDS011;9724;51.194;6.856;2024-01-16T01:05:59;15.43;;;9.20;;
19183;SDS011;9724;51.194;6.856;2024-01-16T01:08:26;19.67;;;9.50;;
19183;SDS011;9724;51.194;6.856;2024-01-16T01:10:53;19.03;;;9.53;;
19183;SDS011;9724;51.194;6.856;2024-01-16T01:13:19;16.37;;;9.43;;
19183;SDS011;9724;51.194;6.856;2024-01-16T01:15:45;23.03;;;10.63;;
19183;SDS011;9724;51.194;6.856;2024-01-16T01:18:12;19.47;;;10.60;;
19183;SDS011;9724;51.194;6.856;2024-01-16T01:20:38;20.30;;;10.60;;
19183;SDS011;9724;51.194;6.856;2024-01-16T01:23:05;23.87;;;11.40;;
19183;SDS011;9724;51.194;6.856;2024-01-16T01:25:32;22.53;;;11.70;;
19183;SDS011;9724;51.194;6.856;2024-01-16T01:27:58;23.17;;;11.47;;
19183;SDS011;9724;51.194;6.856;2024-01-16T01:30:25;19.13;;;10.80;;
19183;SDS011;9724;51.194;6.856;2024-01-16T01:32:51;25.53;;;12.80;;
19183;SDS011;9724;51.194;6.856;2024-01-16T01:35:18;19.57;;;11.73;;
19183;SDS011;9724;51.194;6.856;2024-01-16T01:37:45;21.43;;;11.67;;
19183;SDS011;9724;51.194;6.856;2024-01-16T01:40:11;20.83;;;11.70;;
19183;SDS011;9724;51.194;6.856;2024-01-16T01:42:40;20.67;;;11.53;;
19183;SDS011;9724;51.194;6.856;2024-01-16T01:45:07;21.93;;;12.40;;
19183;SDS011;9724;51.194;6.856;2024-01-16T01:47:34;20.93;;;11.20;;
19183;SDS011;9724;51.194;6.856;2024-01-16T01:50:01;23.13;;;12.10;;
19183;SDS011;9724;51.194;6.856;2024-01-16T01:52:29;22.23;;;11.73;;
19183;SDS011;9724;51.194;6.856;2024-01-16T01:54:56;19.40;;;10.93;;
19183;SDS011;9724;51.194;6.856;2024-01-16T01:57:23;24.93;;;11.03;;
19183;SDS011;9724;51.194;6.856;2024-01-16T01:59:50;18.90;;;10.10;;
19183;SDS011;9724;51.194;6.856;2024-01-16T02:02:16;24.33;;;10.17;;
19183;SDS011;9724;51.194;6.856;2024-01-16T02:04:43;23.40;;;9.83;;
19183;SDS011;9724;51.194;6.856;2024-01-16T02:07:09;22.87;;;10.00;;
19183;SDS011;9724;51.194;6.856;2024-01-16T02:09:36;23.33;;;9.77;;
19183;SDS011;9724;51.194;6.856;2024-01-16T02:12:03;17.13;;;9.33;;
19183;SDS011;9724;51.194;6.856;2024-01-16T02:14:30;14.37;;;9.07;;
19183;SDS011;9724;51.194;6.856;2024-01-16T02:16:57;16.57;;;9.13;;
19183;SDS011;9724;51.194;6.856;2024-01-16T02:19:23;16.57;;;8.90;;
19183;SDS011;9724;51.194;6.856;2024-01-16T02:21:51;22.03;;;9.73;;
19183;SDS011;9724;51.194;6.856;2024-01-16T02:24:19;17.70;;;8.60;;
19183;SDS011;9724;51.194;6.856;2024-01-16T02:26:46;17.20;;;9.27;;
19183;SDS011;9724;51.194;6.856;2024-01-16T02:29:13;20.67;;;9.63;;
19183;SDS011;9724;51.194;6.856;2024-01-16T02:31:39;21.97;;;11.10;;
19183;SDS011;9724;51.194;6.856;2024-01-16T02:34:06;22.93;;;10.47;;
19183;SDS011;9724;51.194;6.856;2024-01-16T02:36:32;20.53;;;11.47;;
19183;SDS011;9724;51.194;6.856;2024-01-16T02:38:59;18.73;;;10.20;;
19183;SDS011;9724;51.194;6.856;2024-01-16T02:41:26;22.07;;;10.87;;
19183;SDS011;9724;51.194;6.856;2024-01-16T02:43:52;20.27;;;11.17;;
19183;SDS011;9724;51.194;6.856;2024-01-16T02:46:19;18.97;;;10.83;;
19183;SDS011;9724;51.194;6.856;2024-01-16T02:48:45;22.53;;;12.07;;
19183;SDS011;9724;51.194;6.856;2024-01-16T02:51:12;25.80;;;11.30;;
19183;SDS011;9724;51.194;6.856;2024-01-16T02:53:38;21.67;;;11.13;;
19183;SDS011;9724;51.194;6.856;2024-01-16T02:56:04;22.53;;;10.67;;
19183;SDS011;9724;51.194;6.856;2024-01-16T02:58:32;23.00;;;10.90;;
19183;SDS011;9724;51.194;6.856;2024-01-16T03:00:58;20.70;;;10.27;;
19183;SDS011;9724;51.194;6.856;2024-01-16T03:03:24;25.57;;;11.43;;
19183;SDS011;9724;51.194;6.856;2024-01-16T03:05:50;24.13;;;10.40;;
19183;SDS011;9724;51.194;6.856;2024-01-16T03:08:17;16.33;;;10.43;;
19183;SDS011;9724;51.194;6.856;2024-01-16T03:10:43;24.13;;;10.70;;
19183;SDS011;9724;51.194;6.856;2024-01-16T03:13:10;18.63;;;10.70;;
19183;SDS011;9724;51.194;6.856;2024-01-16T03:15:37;18.23;;;10.60;;
19183;SDS011;9724;51.194;6.856;2024-01-16T03:18:03;16.57;;;10.20;;
19183;SDS011;9724;51.194;6.856;2024-01-16T03:20:30;21.87;;;10.23;;
19183;SDS011;9724;51.194;6.856;2024-01-16T03:22:56;18.77;;;10.00;;
19183;SDS011;9724;51.194;6.856;2024-01-16T03:25:23;19.53;;;10.03;;
19183;SDS011;9724;51.194;6.856;2024-01-16T03:27:49;18.20;;;10.10;;
19183;SDS011;9724;51.194;6.856;2024-01-16T03:30:15;16.07;;;9.43;;
19183;SDS011;9724;51.194;6.856;2024-01-16T03:32:43;20.23;;;9.73;;
19183;SDS011;9724;51.194;6.856;2024-01-16T03:35:10;19.80;;;9.97;;
19183;SDS011;9724;51.194;6.856;2024-01-16T03:37:37;19.13;;;9.37;;
19183;SDS011;9724;51.194;6.856;2024-01-16T03:40:04;17.70;;;8.97;;
19183;SDS011;9724;51.194;6.856;2024-01-16T03:42:30;19.77;;;10.07;;
19183;SDS011;9724;51.194;6.856;2024-01-16T03:44:57;19.13;;;9.50;;
19183;SDS011;9724;51.194;6.856;2024-01-16T03:47:23;15.40;;;9.00;;
19183;SDS011;9724;51.194;6.856;2024-01-16T03:49:50;16.13;;;9.13;;
19183;SDS011;9724;51.194;6.856;2024-01-16T03:52:16;15.10;;;8.63;;
19183;SDS011;9724;51.194;6.856;2024-01-16T03:54:42;16.73;;;8.13;;
19183;SDS011;9724;51.194;6.856;2024-01-16T03:57:09;16.00;;;8.37;;
19183;SDS011;9724;51.194;6.856;2024-01-16T03:59:36;18.30;;;8.87;;
19183;SDS011;9724;51.194;6.856;2024-01-16T04:02:03;13.33;;;8.57;;
19183;SDS011;9724;51.194;6.856;2024-01-16T04:04:30;15.67;;;8.00;;
19183;SDS011;9724;51.194;6.856;2024-01-16T04:06:57;16.83;;;7.77;;
19183;SDS011;9724;51.194;6.856;2024-01-16T04:09:23;12.70;;;7.87;;
19183;SDS011;9724;51.194;6.856;2024-01-16T04:11:49;17.40;;;8.20;;
19183;SDS011;9724;51.194;6.856;2024-01-16T04:14:16;15.37;;;7.80;;
19183;SDS011;9724;51.194;6.856;2024-01-16T04:16:42;17.17;;;7.87;;
19183;SDS011;9724;51.194;6.856;2024-01-16T04:19:08;12.00;;;6.90;;
19183;SDS011;9724;51.194;6.856;2024-01-16T04:21:35;14.33;;;7.40;;
19183;SDS011;9724;51.194;6.856;2024-01-16T04:24:03;13.07;;;7.27;;
19183;SDS011;9724;51.194;6.856;2024-01-16T04:26:29;15.80;;;7.40;;
19183;SDS011;9724;51.194;6.856;2024-01-16T04:28:55;13.40;;;7.03;;
19183;SDS011;9724;51.194;6.856;2024-01-16T04:31:22;10.40;;;6.53;;
19183;SDS011;9724;51.194;6.856;2024-01-16T04:33:48;8.90;;;5.90;;
19183;SDS011;9724;51.194;6.856;2024-01-16T04:36:14;20.30;;;7.00;;
19183;SDS011;9724;51.194;6.856;2024-01-16T04:38:40;10.70;;;6.40;;
19183;SDS011;9724;51.194;6.856;2024-01-16T04:41:08;8.50;;;5.70;;
19183;SDS011;9724;51.194;6.856;2024-01-16T04:43:34;9.77;;;6.50;;
19183;SDS011;9724;51.194;6.856;2024-01-16T04:46:00;10.23;;;6.10;;
19183;SDS011;9724;51.194;6.856;2024-01-16T04:48:29;10.83;;;6.47;;
19183;SDS011;9724;51.194;6.856;2024-01-16T04:50:55;13.30;;;6.60;;
19183;SDS011;9724;51.194;6.856;2024-01-16T04:53:22;11.73;;;7.13;;
19183;SDS011;9724;51.194;6.856;2024-01-16T04:55:49;11.43;;;6.90;;
19183;SDS011;9724;51.194;6.856;2024-01-16T04:58:16;14.67;;;8.00;;
19183;SDS011;9724;51.194;6.856;2024-01-16T05:00:42;15.00;;;7.70;;
19183;SDS011;9724;51.194;6.856;2024-01-16T05:03:08;15.50;;;8.40;;
19183;SDS011;9724;51.194;6.856;2024-01-16T05:05:34;16.67;;;7.80;;
19183;SDS011;9724;51.194;6.856;2024-01-16T05:08:01;16.33;;;8.57;;
19183;SDS011;9724;51.194;6.856;2024-01-16T05:10:28;20.87;;;8.63;;
19183;SDS011;9724;51.194;6.856;2024-01-16T05:12:54;17.77;;;9.13;;
19183;SDS011;9724;51.194;6.856;2024-01-16T05:15:21;17.70;;;8.60;;
19183;SDS011;9724;51.194;6.856;2024-01-16T05:17:49;20.90;;;10.60;;
19183;SDS011;9724;51.194;6.856;2024-01-16T05:20:16;28.93;;;12.67;;
19183;SDS011;9724;51.194;6.856;2024-01-16T05:22:42;24.87;;;11.63;;
19183;SDS011;9724;51.194;6.856;2024-01-16T05:25:08;16.03;;;7.37;;
19183;SDS011;9724;51.194;6.856;2024-01-16T05:27:35;17.40;;;7.30;;
19183;SDS011;9724;51.194;6.856;2024-01-16T05:30:01;11.80;;;5.90;;
19183;SDS011;9724;51.194;6.856;2024-01-16T05:32:28;19.67;;;6.67;;
19183;SDS011;9724;51.194;6.856;2024-01-16T05:34:54;17.40;;;7.00;;
19183;SDS011;9724;51.194;6.856;2024-01-16T05:37:21;10.97;;;6.90;;
19183;SDS011;9724;51.194;6.856;2024-01-16T05:39:47;21.53;;;6.97;;
19183;SDS011;9724;51.194;6.856;2024-01-16T05:42:14;14.10;;;7.30;;
19183;SDS011;9724;51.194;6.856;2024-01-16T05:44:41;17.30;;;7.47;;
19183;SDS011;9724;51.194;6.856;2024-01-16T05:47:07;13.07;;;7.00;;
19183;SDS011;9724;51.194;6.856;2024-01-16T05:49:34;15.97;;;6.87;;
19183;SDS011;9724;51.194;6.856;2024-01-16T05:52:01;18.57;;;7.00;;
19183;SDS011;9724;51.194;6.856;2024-01-16T05:54:27;11.83;;;6.70;;
19183;SDS011;9724;51.194;6.856;2024-01-16T05:56:54;17.63;;;6.30;;
19183;SDS011;9724;51.194;6.856;2024-01-16T05:59:20;16.83;;;6.23;;
19183;SDS011;9724;51.194;6.856;2024-01-16T06:01:46;14.50;;;6.33;;
19183;SDS011;9724;51.194;6.856;2024-01-16T06:04:13;17.60;;;6.50;;
19183;SDS011;9724;51.194;6.856;2024-01-16T06:06:40;18.07;;;6.40;;
19183;SDS011;9724;51.194;6.856;2024-01-16T06:09:09;17.70;;;7.07;;
19183;SDS011;9724;51.194;6.856;2024-01-16T06:11:39;15.83;;;6.50;;
19183;SDS011;9724;51.194;6.856;2024-01-16T06:14:06;14.07;;;6.10;;
19183;SDS011;9724;51.194;6.856;2024-01-16T06:16:32;23.57;;;5.80;;
19183;SDS011;9724;51.194;6.856;2024-01-16T06:18:59;20.33;;;5.83;;
19183;SDS011;9724;51.194;6.856;2024-01-16T06:21:25;13.43;;;5.13;;
19183;SDS011;9724;51.194;6.856;2024-01-16T06:23:53;19.03;;;5.87;;
19183;SDS011;9724;51.194;6.856;2024-01-16T06:26:19;14.87;;;5.30;;
19183;SDS011;9724;51.194;6.856;2024-01-16T06:28:46;15.30;;;5.10;;
19183;SDS011;9724;51.194;6.856;2024-01-16T06:31:12;13.10;;;4.43;;
19183;SDS011;9724;51.194;6.856;2024-01-16T06:33:38;13.50;;;4.37;;
19183;SDS011;9724;51.194;6.856;2024-01-16T06:36:05;11.43;;;4.77;;
19183;SDS011;9724;51.194;6.856;2024-01-16T06:38:32;11.83;;;4.80;;
19183;SDS011;9724;51.194;6.856;2024-01-16T06:40:59;15.73;;;4.70;;
19183;SDS011;9724;51.194;6.856;2024-01-16T06:43:27;20.77;;;4.70;;
19183;SDS011;9724;51.194;6.856;2024-01-16T06:45:53;12.97;;;4.83;;
19183;SDS011;9724;51.194;6.856;2024-01-16T06:48:19;16.90;;;4.83;;
19183;SDS011;9724;51.194;6.856;2024-01-16T06:50:46;19.87;;;5.43;;
19183;SDS011;9724;51.194;6.856;2024-01-16T06:53:12;16.40;;;4.47;;
19183;SDS011;9724;51.194;6.856;2024-01-16T06:55:42;21.07;;;4.27;;
19183;SDS011;9724;51.194;6.856;2024-01-16T06:58:08;18.53;;;4.43;;
19183;SDS011;9724;51.194;6.856;2024-01-16T07:00:35;11.67;;;4.33;;
19183;SDS011;9724;51.194;6.856;2024-01-16T07:03:02;11.00;;;4.03;;
19183;SDS011;9724;51.194;6.856;2024-01-16T07:05:29;15.10;;;4.93;;
19183;SDS011;9724;51.194;6.856;2024-01-16T07:07:56;7.93;;;4.20;;
19183;SDS011;9724;51.194;6.856;2024-01-16T07:10:22;17.63;;;4.23;;
19183;SDS011;9724;51.194;6.856;2024-01-16T07:12:49;14.27;;;3.97;;
19183;SDS011;9724;51.194;6.856;2024-01-16T07:15:17;14.57;;;3.83;;
19183;SDS011;9724;51.194;6.856;2024-01-16T07:17:44;10.80;;;3.87;;
19183;SDS011;9724;51.194;6.856;2024-01-16T07:20:10;13.90;;;4.20;;
19183;SDS011;9724;51.194;6.856;2024-01-16T07:22:37;17.03;;;3.50;;
19183;SDS011;9724;51.194;6.856;2024-01-16T07:25:05;12.40;;;3.63;;
19183;SDS011;9724;51.194;6.856;2024-01-16T07:27:31;9.47;;;3.67;;
19183;SDS011;9724;51.194;6.856;2024-01-16T07:29:57;9.90;;;3.50;;
19183;SDS011;9724;51.194;6.856;2024-01-16T07:32:25;10.60;;;3.40;;
19183;SDS011;9724;51.194;6.856;2024-01-16T07:34:51;11.40;;;3.57;;
19183;SDS011;9724;51.194;6.856;2024-01-16T07:37:18;12.20;;;3.47;;
19183;SDS011;9724;51.194;6.856;2024-01-16T07:39:44;9.73;;;3.40;;
19183;SDS011;9724;51.194;6.856;2024-01-16T07:42:10;7.77;;;2.87;;
19183;SDS011;9724;51.194;6.856;2024-01-16T07:44:37;12.87;;;3.70;;
19183;SDS011;9724;51.194;6.856;2024-01-16T07:47:03;12.80;;;3.30;;
19183;SDS011;9724;51.194;6.856;2024-01-16T07:49:30;10.23;;;3.47;;
19183;SDS011;9724;51.194;6.856;2024-01-16T07:51:56;15.30;;;3.40;;
19183;SDS011;9724;51.194;6.856;2024-01-16T07:54:23;11.67;;;3.20;;
19183;SDS011;9724;51.194;6.856;2024-01-16T07:56:49;8.77;;;2.93;;
19183;SDS011;9724;51.194;6.856;2024-01-16T07:59:16;8.93;;;3.20;;
19183;SDS011;9724;51.194;6.856;2024-01-16T08:01:43;7.07;;;2.67;;
19183;SDS011;9724;51.194;6.856;2024-01-16T08:04:09;9.70;;;3.10;;
19183;SDS011;9724;51.194;6.856;2024-01-16T08:06:36;13.03;;;2.80;;
19183;SDS011;9724;51.194;6.856;2024-01-16T08:09:02;12.60;;;3.50;;
19183;SDS011;9724;51.194;6.856;2024-01-16T08:11:29;9.63;;;2.97;;
19183;SDS011;9724;51.194;6.856;2024-01-16T08:13:56;15.70;;;3.80;;
19183;SDS011;9724;51.194;6.856;2024-01-16T08:16:23;15.03;;;3.10;;
19183;SDS011;9724;51.194;6.856;2024-01-16T08:18:49;13.10;;;3.30;;
19183;SDS011;9724;51.194;6.856;2024-01-16T08:21:16;9.37;;;2.90;;
19183;SDS011;9724;51.194;6.856;2024-01-16T08:23:42;12.77;;;3.33;;
19183;SDS011;9724;51.194;6.856;2024-01-16T08:26:10;9.57;;;3.67;;
19183;SDS011;9724;51.194;6.856;2024-01-16T08:28:36;10.83;;;3.40;;
19183;SDS011;9724;51.194;6.856;2024-01-16T08:31:03;12.67;;;3.40;;
19183;SDS011;9724;51.194;6.856;2024-01-16T08:33:30;16.20;;;3.87;;
19183;SDS011;9724;51.194;6.856;2024-01-16T08:36:08;10.90;;;3.10;;
19183;SDS011;9724;51.194;6.856;2024-01-16T08:38:34;18.00;;;3.80;;
19183;SDS011;9724;51.194;6.856;2024-01-16T08:41:01;8.47;;;3.33;;
19183;SDS011;9724;51.194;6.856;2024-01-16T08:43:28;10.87;;;3.57;;
19183;SDS011;9724;51.194;6.856;2024-01-16T08:45:54;17.80;;;3.53;;
19183;SDS011;9724;51.194;6.856;2024-01-16T08:48:21;12.60;;;4.00;;
19183;SDS011;9724;51.194;6.856;2024-01-16T08:50:47;16.67;;;3.60;;
19183;SDS011;9724;51.194;6.856;2024-01-16T08:53:14;14.83;;;3.83;;
19183;SDS011;9724;51.194;6.856;2024-01-16T08:55:40;16.27;;;3.10;;
19183;SDS011;9724;51.194;6.856;2024-01-16T08:58:07;16.97;;;3.57;;
19183;SDS011;9724;51.194;6.856;2024-01-16T09:00:33;13.00;;;3.33;;
19183;SDS011;9724;51.194;6.856;2024-01-16T09:02:59;10.47;;;3.70;;
19183;SDS011;9724;51.194;6.856;2024-01-16T09:05:30;17.97;;;3.93;;
19183;SDS011;9724;51.194;6.856;2024-01-16T09:07:57;12.97;;;3.40;;
19183;SDS011;9724;51.194;6.856;2024-01-16T09:10:23;13.10;;;3.47;;
19183;SDS011;9724;51.194;6.856;2024-01-16T09:12:50;14.23;;;3.20;;
19183;SDS011;9724;51.194;6.856;2024-01-16T09:15:17;10.93;;;2.90;;
19183;SDS011;9724;51.194;6.856;2024-01-16T09:17:43;15.27;;;3.63;;
19183;SDS011;9724;51.194;6.856;2024-01-16T09:20:10;14.43;;;3.33;;
19183;SDS011;9724;51.194;6.856;2024-01-16T09:22:38;13.77;;;3.77;;
19183;SDS011;9724;51.194;6.856;2024-01-16T09:25:04;14.93;;;3.27;;
19183;SDS011;9724;51.194;6.856;2024-01-16T09:27:31;15.40;;;4.03;;
19183;SDS011;9724;51.194;6.856;2024-01-16T09:29:57;16.50;;;3.83;;
19183;SDS011;9724;51.194;6.856;2024-01-16T09:32:24;14.17;;;3.23;;
19183;SDS011;9724;51.194;6.856;2024-01-16T09:34:51;27.13;;;4.17;;
19183;SDS011;9724;51.194;6.856;2024-01-16T09:37:17;8.57;;;2.97;;
19183;SDS011;9724;51.194;6.856;2024-01-16T09:39:43;7.93;;;2.93;;
19183;SDS011;9724;51.194;6.856;2024-01-16T09:42:10;15.23;;;3.30;;
19183;SDS011;9724;51.194;6.856;2024-01-16T09:44:36;14.33;;;3.60;;
19183;SDS011;9724;51.194;6.856;2024-01-16T09:47:03;18.63;;;3.80;;
19183;SDS011;9724;51.194;6.856;2024-01-16T09:49:31;16.27;;;3.63;;
19183;SDS011;9724;51.194;6.856;2024-01-16T09:51:57;17.30;;;3.13;;
19183;SDS011;9724;51.194;6.856;2024-01-16T09:54:24;9.27;;;3.60;;
19183;SDS011;9724;51.194;6.856;2024-01-16T09:56:53;6.97;;;3.10;;
19183;SDS011;9724;51.194;6.856;2024-01-16T09:59:20;20.27;;;3.57;;
19183;SDS011;9724;51.194;6.856;2024-01-16T10:01:46;11.93;;;3.50;;
19183;SDS011;9724;51.194;6.856;2024-01-16T10:04:14;18.00;;;4.10;;
19183;SDS011;9724;51.194;6.856;2024-01-16T10:06:41;16.87;;;3.40;;
19183;SDS011;9724;51.194;6.856;2024-01-16T10:09:11;12.43;;;3.37;;
19183;SDS011;9724;51.194;6.856;2024-01-16T10:11:38;28.13;;;3.97;;
19183;SDS011;9724;51.194;6.856;2024-01-16T10:14:05;11.97;;;3.97;;
19183;SDS011;9724;51.194;6.856;2024-01-16T10:19:23;17.30;;;3.70;;
19183;SDS011;9724;51.194;6.856;2024-01-16T10:22:01;19.33;;;4.03;;
19183;SDS011;9724;51.194;6.856;2024-01-16T10:24:28;16.93;;;3.80;;
19183;SDS011;9724;51.194;6.856;2024-01-16T10:26:57;8.83;;;3.07;;
19183;SDS011;9724;51.194;6.856;2024-01-16T10:29:24;13.57;;;3.40;;
19183;SDS011;9724;51.194;6.856;2024-01-16T10:31:57;10.43;;;3.87;;
19183;SDS011;9724;51.194;6.856;2024-01-16T10:34:24;15.93;;;3.63;;
19183;SDS011;9724;51.194;6.856;2024-01-16T10:36:51;18.97;;;3.63;;
19183;SDS011;9724;51.194;6.856;2024-01-16T10:39:18;17.50;;;3.93;;
19183;SDS011;9724;51.194;6.856;2024-01-16T10:41:53;10.10;;;3.93;;
19183;SDS011;9724;51.194;6.856;2024-01-16T10:44:19;17.53;;;3.77;;
19183;SDS011;9724;51.194;6.856;2024-01-16T10:46:46;10.07;;;3.40;;
19183;SDS011;9724;51.194;6.856;2024-01-16T10:49:12;11.80;;;3.33;;
19183;SDS011;9724;51.194;6.856;2024-01-16T10:51:38;13.60;;;3.53;;
19183;SDS011;9724;51.194;6.856;2024-01-16T10:54:09;13.30;;;3.70;;
19183;SDS011;9724;51.194;6.856;2024-01-16T10:56:41;13.90;;;3.70;;
19183;SDS011;9724;51.194;6.856;2024-01-16T10:59:12;19.30;;;3.47;;
19183;SDS011;9724;51.194;6.856;2024-01-16T11:01:45;11.40;;;3.97;;
19183;SDS011;9724;51.194;6.856;2024-01-16T11:04:14;13.83;;;3.97;;
19183;SDS011;9724;51.194;6.856;2024-01-16T11:06:41;14.53;;;3.97;;
19183;SDS011;9724;51.194;6.856;2024-01-16T11:09:08;18.33;;;3.70;;
19183;SDS011;9724;51.194;6.856;2024-01-16T11:11:35;16.00;;;4.00;;
19183;SDS011;9724;51.194;6.856;2024-01-16T11:14:04;7.80;;;3.50;;
19183;SDS011;9724;51.194;6.856;2024-01-16T11:16:31;15.53;;;3.70;;
19183;SDS011;9724;51.194;6.856;2024-01-16T11:18:58;13.43;;;4.23;;
19183;SDS011;9724;51.194;6.856;2024-01-16T11:21:44;8.47;;;3.70;;
19183;SDS011;9724;51.194;6.856;2024-01-16T11:24:12;18.47;;;4.50;;
19183;SDS011;9724;51.194;6.856;2024-01-16T11:26:39;19.40;;;3.93;;
19183;SDS011;9724;51.194;6.856;2024-01-16T11:32:00;15.90;;;3.43;;
19183;SDS011;9724;51.194;6.856;2024-01-16T11:34:52;10.93;;;3.73;;
19183;SDS011;9724;51.194;6.856;2024-01-16T11:37:24;9.37;;;3.23;;
19183;SDS011;9724;51.194;6.856;2024-01-16T11:39:54;12.27;;;3.63;;
19183;SDS011;9724;51.194;6.856;2024-01-16T11:42:51;14.50;;;3.77;;
19183;SDS011;9724;51.194;6.856;2024-01-16T11:48:15;5.67;;;3.57;;
19183;SDS011;9724;51.194;6.856;2024-01-16T11:50:42;15.20;;;3.67;;
19183;SDS011;9724;51.194;6.856;2024-01-16T11:53:09;10.13;;;3.57;;
19183;SDS011;9724;51.194;6.856;2024-01-16T11:55:46;21.63;;;4.13;;
19183;SDS011;9724;51.194;6.856;2024-01-16T11:58:21;28.67;;;3.93;;
19183;SDS011;9724;51.194;6.856;2024-01-16T12:00:56;15.33;;;4.43;;
19183;SDS011;9724;51.194;6.856;2024-01-16T12:03:23;7.87;;;3.60;;
19183;SDS011;9724;51.194;6.856;2024-01-16T12:06:01;12.80;;;4.57;;
19183;SDS011;9724;51.194;6.856;2024-01-16T12:08:28;12.57;;;3.87;;
19183;SDS011;9724;51.194;6.856;2024-01-16T12:10:55;24.20;;;3.97;;
19183;SDS011;9724;51.194;6.856;2024-01-16T12:13:21;12.53;;;3.63;;
19183;SDS011;9724;51.194;6.856;2024-01-16T12:15:48;8.53;;;3.77;;
19183;SDS011;9724;51.194;6.856;2024-01-16T12:18:18;14.20;;;4.10;;
19183;SDS011;9724;51.194;6.856;2024-01-16T12:21:07;11.57;;;3.40;;
19183;SDS011;9724;51.194;6.856;2024-01-16T12:23:34;17.50;;;3.50;;
19183;SDS011;9724;51.194;6.856;2024-01-16T12:26:00;19.10;;;4.67;;
19183;SDS011;9724;51.194;6.856;2024-01-16T12:28:29;10.73;;;3.73;;
19183;SDS011;9724;51.194;6.856;2024-01-16T12:30:59;11.00;;;3.73;;
19183;SDS011;9724;51.194;6.856;2024-01-16T12:33:27;8.87;;;3.40;;
19183;SDS011;9724;51.194;6.856;2024-01-16T12:36:00;8.30;;;3.37;;
19183;SDS011;9724;51.194;6.856;2024-01-16T12:38:27;9.47;;;3.73;;
19183;SDS011;9724;51.194;6.856;2024-01-16T12:40:53;17.83;;;3.90;;
19183;SDS011;9724;51.194;6.856;2024-01-16T12:43:19;16.67;;;3.60;;
19183;SDS011;9724;51.194;6.856;2024-01-16T12:45:46;11.00;;;3.70;;
19183;SDS011;9724;51.194;6.856;2024-01-16T12:48:22;13.37;;;3.87;;
19183;SDS011;9724;51.194;6.856;2024-01-16T12:50:49;13.17;;;3.63;;
19183;SDS011;9724;51.194;6.856;2024-01-16T12:53:16;12.27;;;3.80;;
19183;SDS011;9724;51.194;6.856;2024-01-16T12:55:44;14.00;;;3.67;;
19183;SDS011;9724;51.194;6.856;2024-01-16T12:58:11;14.43;;;3.97;;
19183;SDS011;9724;51.194;6.856;2024-01-16T13:00:41;10.77;;;4.10;;
19183;SDS011;9724;51.194;6.856;2024-01-16T13:03:07;11.53;;;3.53;;
19183;SDS011;9724;51.194;6.856;2024-01-16T13:05:34;9.27;;;3.97;;
19183;SDS011;9724;51.194;6.856;2024-01-16T13:08:02;9.50;;;3.60;;
19183;SDS011;9724;51.194;6.856;2024-01-16T13:10:28;13.17;;;4.27;;
19183;SDS011;9724;51.194;6.856;2024-01-16T13:13:10;11.73;;;4.13;;
19183;SDS011;9724;51.194;6.856;2024-01-16T13:15:37;8.33;;;4.30;;
19183;SDS011;9724;51.194;6.856;2024-01-16T13:18:04;17.07;;;4.50;;
19183;SDS011;9724;51.194;6.856;2024-01-16T13:20:31;14.43;;;4.33;;
19183;SDS011;9724;51.194;6.856;2024-01-16T13:22:57;15.70;;;4.50;;
19183;SDS011;9724;51.194;6.856;2024-01-16T13:25:24;17.40;;;4.33;;
19183;SDS011;9724;51.194;6.856;2024-01-16T13:27:51;9.17;;;4.63;;
19183;SDS011;9724;51.194;6.856;2024-01-16T13:30:18;14.83;;;4.77;;
19183;SDS011;9724;51.194;6.856;2024-01-16T13:32:47;18.57;;;4.40;;
19183;SDS011;9724;51.194;6.856;2024-01-16T13:35:13;16.43;;;4.47;;
19183;SDS011;9724;51.194;6.856;2024-01-16T13:37:40;13.00;;;4.03;;
19183;SDS011;9724;51.194;6.856;2024-01-16T13:40:06;14.40;;;5.10;;
19183;SDS011;9724;51.194;6.856;2024-01-16T13:42:35;16.80;;;4.50;;
19183;SDS011;9724;51.194;6.856;2024-01-16T13:45:01;12.80;;;4.27;;
19183;SDS011;9724;51.194;6.856;2024-01-16T13:47:29;11.87;;;4.43;;
19183;SDS011;9724;51.194;6.856;2024-01-16T13:49:56;17.90;;;4.33;;
19183;SDS011;9724;51.194;6.856;2024-01-16T13:52:22;11.13;;;4.17;;
19183;SDS011;9724;51.194;6.856;2024-01-16T13:54:53;12.37;;;4.07;;
19183;SDS011;9724;51.194;6.856;2024-01-16T13:57:19;11.33;;;4.20;;
19183;SDS011;9724;51.194;6.856;2024-01-16T13:59:46;17.40;;;4.87;;
19183;SDS011;9724;51.194;6.856;2024-01-16T14:02:13;7.77;;;3.60;;
19183;SDS011;9724;51.194;6.856;2024-01-16T14:04:39;13.67;;;4.70;;
19183;SDS011;9724;51.194;6.856;2024-01-16T14:07:05;13.87;;;3.90;;
19183;SDS011;9724;51.194;6.856;2024-01-16T14:09:39;8.40;;;3.77;;
19183;SDS011;9724;51.194;6.856;2024-01-16T14:12:06;9.23;;;3.70;;
19183;SDS011;9724;51.194;6.856;2024-01-16T14:14:33;11.77;;;4.10;;
19183;SDS011;9724;51.194;6.856;2024-01-16T14:17:00;18.03;;;4.60;;
19183;SDS011;9724;51.194;6.856;2024-01-16T14:19:27;19.60;;;4.40;;
19183;SDS011;9724;51.194;6.856;2024-01-16T14:21:55;12.73;;;4.13;;
19183;SDS011;9724;51.194;6.856;2024-01-16T14:24:21;10.57;;;4.13;;
19183;SDS011;9724;51.194;6.856;2024-01-16T14:26:48;9.83;;;3.97;;
19183;SDS011;9724;51.194;6.856;2024-01-16T14:29:14;12.83;;;3.90;;
19183;SDS011;9724;51.194;6.856;2024-01-16T14:31:41;10.73;;;4.20;;
19183;SDS011;9724;51.194;6.856;2024-01-16T14:34:10;10.93;;;4.10;;
19183;SDS011;9724;51.194;6.856;2024-01-16T14:36:37;11.00;;;3.70;;
19183;SDS011;9724;51.194;6.856;2024-01-16T14:39:03;19.53;;;5.40;;
19183;SDS011;9724;51.194;6.856;2024-01-16T14:41:29;5.33;;;3.70;;
19183;SDS011;9724;51.194;6.856;2024-01-16T14:43:57;10.00;;;3.80;;
19183;SDS011;9724;51.194;6.856;2024-01-16T14:46:23;13.87;;;3.97;;
19183;SDS011;9724;51.194;6.856;2024-01-16T14:48:50;11.73;;;4.00;;
19183;SDS011;9724;51.194;6.856;2024-01-16T14:51:17;7.90;;;4.33;;
19183;SDS011;9724;51.194;6.856;2024-01-16T14:53:43;7.93;;;3.63;;
19183;SDS011;9724;51.194;6.856;2024-01-16T14:56:10;11.27;;;3.70;;